This is the latest recevied weather packets stored in our database for station/object F4ELU-13. If no packets are shown the sender has not sent any weather packets the latest 10 day(s).
| Time | Temp. | Humidity | Pressure | Rain* | Wind** | Luminosity | Snow |
|---|---|---|---|---|---|---|---|
| 1777858023 | 11.67° C | 86% | 1013.6 hPa | 0 mm | - | - | - |
| 1777857483 | 11.67° C | 86% | 1013.5 hPa | 0 mm | - | - | - |
| 1777856943 | 11.67° C | 83% | 1013.5 hPa | 0 mm | - | - | - |
| 1777856403 | 10.56° C | 88% | 1013.3 hPa | 0 mm | - | - | - |
| 1777856043 | 10.56° C | 90% | 1013.4 hPa | 0 mm | - | - | - |
| 1777855503 | 10.56° C | 90% | 1013.4 hPa | 0 mm | - | - | - |
| 1777854963 | 10.56° C | 88% | 1013.4 hPa | 0 mm | - | - | - |
| 1777854423 | 10.56° C | 86% | 1013.3 hPa | 0 mm | - | - | - |
| 1777853883 | 10.56° C | 85% | 1013.4 hPa | 0 mm | - | - | - |
| 1777853343 | 10.56° C | 85% | 1013.4 hPa | 0 mm | - | - | - |
| 1777852803 | 11.11° C | 84% | 1013.4 hPa | 0 mm | - | - | - |
| 1777852443 | 11.11° C | 83% | 1013.3 hPa | 0 mm | - | - | - |
| 1777851903 | 11.11° C | 83% | 1013.4 hPa | 0 mm | - | - | - |
| 1777851363 | 11.67° C | 82% | 1013.6 hPa | 0 mm | - | - | - |
| 1777850823 | 11.67° C | 80% | 1013.7 hPa | 0 mm | - | - | - |
| 1777850283 | 12.22° C | 79% | 1013.7 hPa | 0 mm | - | - | - |
| 1777849743 | 12.22° C | 79% | 1013.7 hPa | 0 mm | - | - | - |
| 1777849203 | 12.22° C | 79% | 1013.7 hPa | 0 mm | - | - | - |
| 1777848843 | 12.22° C | 79% | 1013.6 hPa | 0 mm | - | - | - |
| 1777848304 | 12.22° C | 78% | 1013.8 hPa | 0 mm | - | - | - |
| 1777847763 | 12.78° C | 76% | 1013.8 hPa | 0 mm | - | - | - |
| 1777847223 | 12.78° C | 76% | 1013.6 hPa | 0 mm | - | - | - |
| 1777846683 | 13.33° C | 74% | 1013.7 hPa | 0 mm | - | - | - |
| 1777846143 | 13.89° C | 72% | 1013.7 hPa | 0 mm | - | - | - |
| 1777845603 | 14.44° C | 71% | 1013.8 hPa | 0 mm | - | - | - |
* Rain latest hour (hover to see other rain measurements)
** Current wind speed in m/s (hover to see current wind gust speed)